Time;durP1;ratioP1;P1;durP2;ratioP2;P2;SDS_P1;SDS_P2;PMS_P1;PMS_P2;Temp;Humidity;BMP_temperature;BMP_pressure;BME280_temperature;BME280_humidity;BME280_pressure;Samples;Min_cycle;Max_cycle;Signal;HPM_P1;HPM_P2
2022/03/23 00:01:07;;;;;;;3.30;2.80;;;;;;;16.53;50.89;97811.63;10389823;28;20442;-22
2022/03/23 00:06:08;;;;;;;3.58;2.92;;;;;;;16.52;50.43;97809.94;10398784;28;20076;-21
2022/03/23 00:11:08;;;;;;;3.58;2.95;;;;;;;16.52;50.68;97806.56;10390349;28;20041;-21
2022/03/23 00:16:09;;;;;;;4.20;2.87;;;;;;;16.50;50.61;97806.53;10388732;28;20037;-21
2022/03/23 00:21:09;;;;;;;4.00;2.93;;;;;;;16.53;50.83;97814.16;10385156;28;20045;-21
2022/03/23 00:26:12;;;;;;;5.17;3.20;;;;;;;16.50;50.70;97805.66;10384224;28;20064;-21
2022/03/23 00:31:14;;;;;;;4.25;3.08;;;;;;;16.52;51.85;97802.34;10383623;28;20280;-22
2022/03/23 00:36:15;;;;;;;4.38;3.40;;;;;;;16.57;51.76;97812.56;10391386;28;20105;-21
2022/03/23 00:41:16;;;;;;;4.22;2.90;;;;;;;16.55;51.69;97814.22;10388180;28;20022;-21
2022/03/23 00:46:16;;;;;;;4.30;2.90;;;;;;;16.55;51.05;97812.53;10373072;28;20034;-22
2022/03/23 00:51:16;;;;;;;6.53;3.60;;;;;;;16.53;50.69;97814.16;10359521;28;20482;-21
2022/03/23 00:56:17;;;;;;;3.93;2.70;;;;;;;16.52;50.70;97801.50;10383867;28;20022;-21
2022/03/23 01:01:17;;;;;;;3.20;2.60;;;;;;;16.52;50.92;97804.88;10365529;28;20347;-21
2022/03/23 01:06:18;;;;;;;3.77;2.70;;;;;;;16.51;50.96;97807.34;10397778;28;20291;-21
2022/03/23 01:11:18;;;;;;;2.87;2.33;;;;;;;16.50;50.69;97803.13;10389105;28;20350;-21
2022/03/23 01:16:19;;;;;;;4.00;2.92;;;;;;;16.49;50.58;97807.34;10386132;28;20397;-21
2022/03/23 01:21:19;;;;;;;3.67;2.75;;;;;;;16.51;50.50;97813.28;10364716;28;20030;-21
2022/03/23 01:26:19;;;;;;;3.80;2.22;;;;;;;16.49;50.80;97809.88;10387804;28;20030;-21
2022/03/23 01:31:20;;;;;;;5.30;2.67;;;;;;;16.51;51.67;97814.94;10383902;28;20547;-21
2022/03/23 01:36:20;;;;;;;3.67;3.13;;;;;;;16.56;51.67;97806.69;10383425;28;20288;-21
2022/03/23 01:41:21;;;;;;;3.97;3.00;;;;;;;16.53;51.11;97801.53;10368577;28;20033;-21
2022/03/23 01:46:22;;;;;;;5.03;3.40;;;;;;;16.54;50.22;97807.44;10372496;28;20292;-21
2022/03/23 01:51:23;;;;;;;4.95;2.40;;;;;;;16.51;50.53;97810.75;10386573;28;20299;-22
2022/03/23 01:56:26;;;;;;;3.80;3.13;;;;;;;16.49;50.52;97794.69;10396132;28;20104;-21
2022/03/23 02:01:27;;;;;;;3.22;2.70;;;;;;;16.50;50.61;97809.03;10375461;28;20113;-21
2022/03/23 02:06:27;;;;;;;3.25;2.42;;;;;;;16.49;50.92;97804.81;10392476;28;20520;-21
2022/03/23 02:11:29;;;;;;;2.90;2.42;;;;;;;16.48;50.62;97803.09;10381407;28;20032;-22
2022/03/23 02:16:29;;;;;;;3.08;2.70;;;;;;;16.49;50.33;97807.34;10391172;28;20474;-22
2022/03/23 02:21:30;;;;;;;2.92;2.58;;;;;;;16.42;50.51;97792.84;10396387;28;20065;-22
2022/03/23 02:26:32;;;;;;;3.45;2.65;;;;;;;16.48;50.80;97808.16;10382627;28;20084;-22
2022/03/23 02:31:32;;;;;;;3.47;2.72;;;;;;;16.50;51.32;97800.59;10395059;28;20551;-21
2022/03/23 02:36:33;;;;;;;4.75;2.85;;;;;;;16.53;51.66;97800.69;10395164;28;20059;-21
2022/03/23 02:41:34;;;;;;;5.82;2.80;;;;;;;16.50;51.49;97791.34;10397694;28;20440;-21
2022/03/23 02:46:35;;;;;;;3.17;2.60;;;;;;;16.52;50.51;97799.81;10406515;28;20084;-21
2022/03/23 02:51:37;;;;;;;3.95;2.80;;;;;;;16.51;50.79;97802.31;10386536;28;20111;-21
2022/03/23 03:02:18;;;;;;;2.78;2.42;;;;;;;16.49;50.68;97797.22;10390466;28;20155;-21
2022/03/23 03:07:18;;;;;;;5.30;2.47;;;;;;;16.50;50.41;97804.00;10402003;28;20026;-21
2022/03/23 03:12:19;;;;;;;3.73;2.10;;;;;;;16.43;50.44;97793.66;10390717;28;20033;-21
2022/03/23 03:17:19;;;;;;;3.43;2.63;;;;;;;16.48;50.61;97815.75;10385313;28;20033;-22
2022/03/23 03:22:20;;;;;;;3.83;2.80;;;;;;;16.47;50.75;97816.56;10388011;28;20536;-21
2022/03/23 03:27:20;;;;;;;3.13;2.70;;;;;;;16.47;50.34;97819.09;10387280;28;20037;-21
2022/03/23 03:32:21;;;;;;;3.50;2.80;;;;;;;16.48;51.19;97828.38;10394549;28;20042;-22
2022/03/23 03:37:21;;;;;;;4.43;2.70;;;;;;;16.51;51.47;97820.88;10387059;28;20030;-21
2022/03/23 03:42:21;;;;;;;4.23;2.50;;;;;;;16.50;50.52;97821.69;10384031;28;20038;-21
2022/03/23 03:47:23;;;;;;;3.17;2.35;;;;;;;16.51;50.84;97827.56;10384718;28;20034;-21
2022/03/23 03:52:23;;;;;;;3.95;2.85;;;;;;;16.48;50.37;97823.34;10380143;28;20034;-22
2022/03/23 03:57:24;;;;;;;2.90;2.60;;;;;;;16.49;50.70;97830.09;10387993;28;20473;-21
2022/03/23 04:02:24;;;;;;;2.77;2.47;;;;;;;16.49;50.73;97834.28;10391623;28;20068;-21
2022/03/23 04:07:24;;;;;;;2.93;2.53;;;;;;;16.49;50.44;97839.34;10401314;28;20021;-21
2022/03/23 04:12:25;;;;;;;3.37;3.07;;;;;;;16.47;50.64;97841.84;10387959;28;20068;-21
2022/03/23 04:17:25;;;;;;;2.95;2.45;;;;;;;16.48;50.52;97843.56;10390667;28;20402;-22
2022/03/23 04:22:25;;;;;;;4.28;2.50;;;;;;;16.47;50.61;97838.44;10380874;28;20481;-21
2022/03/23 04:27:26;;;;;;;2.60;2.40;;;;;;;16.47;50.46;97844.38;10392323;28;20033;-21
2022/03/23 04:32:26;;;;;;;2.85;2.55;;;;;;;16.50;51.35;97839.38;10389327;28;20029;-21
2022/03/23 04:37:27;;;;;;;2.92;2.55;;;;;;;16.52;51.62;97855.44;10385128;28;20363;-21
2022/03/23 04:42:27;;;;;;;3.93;2.63;;;;;;;16.49;50.94;97857.03;10384985;28;20140;-21
2022/03/23 04:47:28;;;;;;;3.17;2.67;;;;;;;16.49;50.44;97855.38;10389313;28;20053;-21
2022/03/23 04:52:30;;;;;;;3.00;2.70;;;;;;;16.47;50.78;97862.06;10380955;28;20025;-21
2022/03/23 04:57:30;;;;;;;2.72;2.45;;;;;;;16.44;50.38;97854.38;10383300;28;20459;-21
2022/03/23 05:02:30;;;;;;;3.22;2.65;;;;;;;16.49;50.20;97857.91;10385071;28;20037;-20
2022/03/23 05:07:31;;;;;;;3.83;2.47;;;;;;;16.47;50.31;97856.13;10400109;28;20041;-21
2022/03/23 05:12:31;;;;;;;4.17;2.67;;;;;;;16.54;50.43;97870.66;10388423;28;20057;-21
2022/03/23 05:17:33;;;;;;;2.87;2.53;;;;;;;16.54;50.81;97866.44;10387308;28;20907;-21
2022/03/23 05:22:33;;;;;;;4.13;2.50;;;;;;;16.55;50.58;97865.63;10387913;28;20368;-21
2022/03/23 05:27:36;;;;;;;3.90;2.80;;;;;;;16.59;50.22;97875.00;10390801;28;20112;-21
2022/03/23 05:32:39;;;;;;;4.18;2.38;;;;;;;16.57;50.73;97874.13;10389816;28;20036;-21
2022/03/23 05:37:40;;;;;;;8.13;4.75;;;;;;;16.41;47.19;97872.00;10388353;28;20034;-22
2022/03/23 05:42:41;;;;;;;7.15;5.38;;;;;;;16.10;44.90;97869.44;10385689;28;20030;-21
2022/03/23 05:47:41;;;;;;;8.88;5.47;;;;;;;16.10;45.43;97879.53;10388360;28;20034;-21
2022/03/23 05:52:42;;;;;;;5.55;4.93;;;;;;;16.23;43.45;97881.59;10377766;28;20064;-22
2022/03/23 05:57:42;;;;;;;6.88;3.53;;;;;;;16.39;48.50;97887.94;10387248;28;20025;-21
2022/03/23 06:02:43;;;;;;;6.43;3.47;;;;;;;16.36;48.84;97888.66;10384788;28;20045;-20
2022/03/23 06:07:43;;;;;;;3.90;3.50;;;;;;;16.43;48.84;97882.13;10397402;28;20037;-21
2022/03/23 06:12:44;;;;;;;10.40;5.10;;;;;;;16.48;49.43;97893.25;10383203;28;20124;-21
2022/03/23 06:17:44;;;;;;;7.15;4.20;;;;;;;16.49;49.35;97892.41;10382607;28;20038;-21
2022/03/23 06:22:45;;;;;;;5.83;3.20;;;;;;;16.51;49.89;97898.34;10383691;28;20037;-20
2022/03/23 06:27:45;;;;;;;4.07;3.20;;;;;;;16.50;49.49;97900.06;10386743;28;20034;-21
2022/03/23 06:32:45;;;;;;;14.97;4.90;;;;;;;16.56;51.13;97904.41;10383020;28;20058;-21
2022/03/23 06:37:46;;;;;;;11.23;5.53;;;;;;;16.00;43.33;97907.00;10399160;28;20080;-21
2022/03/23 06:42:47;;;;;;;13.03;6.50;;;;;;;16.19;45.37;97904.22;10387720;28;20044;-21
2022/03/23 06:47:47;;;;;;;10.30;4.05;;;;;;;16.33;47.14;97915.53;10390078;28;20029;-21
2022/03/23 06:52:48;;;;;;;8.13;3.90;;;;;;;16.35;48.16;97903.81;10386202;28;20030;-21
2022/03/23 06:57:48;;;;;;;4.97;3.43;;;;;;;16.38;48.62;97912.34;10388054;28;20364;-21
2022/03/23 07:02:50;;;;;;;9.40;4.10;;;;;;;16.38;49.09;97917.41;10392746;28;20339;-21
2022/03/23 07:13:09;;;;;;;6.45;3.40;;;;;;;16.40;49.32;97913.25;10388436;28;20087;-21
2022/03/23 07:18:10;;;;;;;3.83;3.17;;;;;;;16.43;49.69;97918.38;10390687;28;20036;-21
2022/03/23 07:23:11;;;;;;;5.22;3.60;;;;;;;16.41;49.46;97917.50;10391031;28;20029;-21
2022/03/23 07:28:11;;;;;;;4.82;3.28;;;;;;;16.42;49.84;97916.69;10393451;28;20451;-20
2022/03/23 07:33:11;;;;;;;5.63;3.43;;;;;;;16.43;49.97;97925.97;10393996;28;20519;-21
2022/03/23 07:38:12;;;;;;;4.33;3.23;;;;;;;16.45;50.17;97931.09;10386263;28;20037;-21
2022/03/23 07:43:12;;;;;;;4.40;3.07;;;;;;;16.40;49.83;97925.03;10387515;28;20034;-21
2022/03/23 07:48:12;;;;;;;4.82;3.15;;;;;;;16.39;50.04;97920.78;10389735;28;20308;-21
2022/03/23 07:53:14;;;;;;;4.00;2.78;;;;;;;16.42;49.91;97931.84;10385303;28;20505;-22
2022/03/23 07:58:14;;;;;;;4.20;2.83;;;;;;;16.42;50.04;97931.84;10385267;28;20032;-21
2022/03/23 08:03:15;;;;;;;3.77;2.70;;;;;;;16.43;50.22;97932.69;10392671;28;20334;-21
2022/03/23 08:08:15;;;;;;;5.40;2.80;;;;;;;16.37;50.01;97930.00;10391159;28;20041;-21
2022/03/23 08:13:17;;;;;;;3.72;2.95;;;;;;;16.43;49.63;97930.16;10386893;28;20034;-21
2022/03/23 08:18:21;;;;;;;3.20;2.88;;;;;;;16.41;50.25;97932.66;10388577;28;20072;-21
2022/03/23 08:23:21;;;;;;;3.45;2.72;;;;;;;16.41;50.16;97930.13;10388305;28;20021;-21
2022/03/23 08:28:22;;;;;;;4.68;3.05;;;;;;;16.42;50.47;97933.50;10390494;28;20509;-21
2022/03/23 08:33:25;;;;;;;4.00;3.00;;;;;;;16.43;50.58;97931.03;10384785;28;20032;-21
2022/03/23 08:38:25;;;;;;;3.83;2.50;;;;;;;16.44;50.15;97935.25;10396616;28;20289;-21
2022/03/23 08:43:26;;;;;;;3.70;2.78;;;;;;;16.46;50.17;97920.16;10383821;28;20034;-21
2022/03/23 08:48:27;;;;;;;4.05;2.78;;;;;;;16.45;49.73;97924.34;10386468;28;20025;-21
2022/03/23 08:53:27;;;;;;;4.18;3.17;;;;;;;16.45;50.38;97918.44;10385789;28;20034;-21
2022/03/23 08:58:28;;;;;;;3.45;2.47;;;;;;;16.45;50.31;97909.16;10386670;28;20022;-21
2022/03/23 09:03:28;;;;;;;3.38;2.70;;;;;;;16.46;50.24;97907.50;10388255;28;20029;-20
2022/03/23 09:08:28;;;;;;;3.08;2.53;;;;;;;16.44;50.35;97910.00;10392530;28;20046;-21
2022/03/23 09:13:29;;;;;;;3.00;2.70;;;;;;;16.43;50.31;97908.28;10382599;28;20117;-21
2022/03/23 09:18:29;;;;;;;4.15;2.47;;;;;;;16.43;50.10;97907.41;10384482;28;20025;-21
2022/03/23 09:23:29;;;;;;;2.90;2.10;;;;;;;16.46;50.09;97921.00;10380659;28;20030;-21
2022/03/23 09:28:30;;;;;;;3.77;2.70;;;;;;;16.43;50.65;97910.81;10381040;28;20293;-21
2022/03/23 09:33:31;;;;;;;3.58;2.90;;;;;;;16.45;50.54;97909.16;10387670;28;20034;-21
2022/03/23 09:38:31;;;;;;;4.03;2.60;;;;;;;16.45;50.54;97904.13;10378587;28;20080;-21
2022/03/23 09:43:32;;;;;;;3.03;2.50;;;;;;;16.45;50.44;97905.81;10383190;28;20283;-21
2022/03/23 09:48:34;;;;;;;3.60;2.57;;;;;;;16.44;50.46;97907.47;10384497;28;20049;-21
2022/03/23 09:53:35;;;;;;;3.35;2.75;;;;;;;16.44;50.08;97902.41;10387622;28;20294;-21
2022/03/23 09:58:35;;;;;;;3.30;2.40;;;;;;;16.42;50.49;97901.53;10390152;28;20036;-21
2022/03/23 10:04:04;;;;;;;3.17;2.77;;;;;;;16.44;50.09;97894.81;10387957;28;20033;-20
2022/03/23 10:09:26;;;;;;;3.70;2.58;;;;;;;16.43;50.01;97892.25;10384637;28;20133;-21
2022/03/23 10:14:55;;;;;;;3.38;2.30;;;;;;;16.41;49.99;97886.31;10387158;28;20040;-21
2022/03/23 10:19:56;;;;;;;4.72;2.35;;;;;;;16.41;49.94;97884.66;10318681;28;20140;-21
2022/03/23 10:25:06;;;;;;;2.87;2.40;;;;;;;16.41;50.21;97877.06;10389368;28;20471;-21
2022/03/23 10:30:08;;;;;;;3.40;2.50;;;;;;;16.41;50.60;97872.00;10395854;28;20323;-21
2022/03/23 10:35:16;;;;;;;2.38;2.13;;;;;;;16.43;51.16;97865.31;10390201;28;20030;-21
2022/03/23 10:40:18;;;;;;;2.88;2.22;;;;;;;16.43;50.67;97870.38;10390990;28;20115;-21
2022/03/23 10:45:20;;;;;;;2.47;2.05;;;;;;;16.44;50.20;97863.66;10393942;28;20494;-21
2022/03/23 10:50:26;;;;;;;3.20;2.35;;;;;;;16.40;49.89;97845.03;10384926;28;20056;-21
2022/03/23 10:55:38;;;;;;;3.03;2.30;;;;;;;16.40;49.95;97845.03;10389620;28;20037;-21
2022/03/23 11:00:39;;;;;;;2.55;2.35;;;;;;;16.34;50.29;97834.72;10388298;28;20049;-21
2022/03/23 11:05:45;;;;;;;2.58;2.35;;;;;;;16.42;49.92;97835.81;10397454;28;20032;-20
2022/03/23 11:16:23;;;;;;;4.20;2.45;;;;;;;16.45;50.22;97828.28;10390873;28;20041;-21
2022/03/23 11:21:24;;;;;;;2.90;2.03;;;;;;;16.47;50.12;97816.56;10387692;28;20379;-21
2022/03/23 11:26:27;;;;;;;2.65;2.10;;;;;;;16.48;50.06;97823.34;10386812;28;20508;-21
2022/03/23 11:31:27;;;;;;;2.05;1.85;;;;;;;16.42;51.22;97797.88;10384877;28;20493;-21
2022/03/23 11:36:30;;;;;;;2.90;2.15;;;;;;;16.51;50.97;97815.81;10388580;28;20032;-21
2022/03/23 11:41:32;;;;;;;9.38;3.50;;;;;;;16.50;49.82;97806.53;10390880;28;20033;-20
2022/03/23 11:46:33;;;;;;;6.38;2.92;;;;;;;16.53;50.61;97795.63;10390010;28;20124;-21
2022/03/23 11:52:01;;;;;;;4.57;2.38;;;;;;;16.52;50.52;97799.81;10378135;28;20490;-21
2022/03/23 11:57:02;;;;;;;5.32;2.55;;;;;;;16.52;50.17;97792.25;10391398;28;20113;-21
2022/03/23 12:02:03;;;;;;;5.28;2.55;;;;;;;16.52;50.28;97787.19;10386479;28;20120;-21
2022/03/23 12:07:08;;;;;;;8.07;2.55;;;;;;;16.52;50.67;97788.88;10397646;28;20026;-22
2022/03/23 12:12:33;;;;;;;3.95;3.03;;;;;;;16.53;50.51;97776.25;10387243;28;20563;-22
2022/03/23 12:17:34;;;;;;;6.70;2.28;;;;;;;16.51;50.43;97772.84;10384086;28;20120;-21
2022/03/23 12:22:34;;;;;;;4.50;2.67;;;;;;;16.56;50.39;97770.41;10377719;28;20558;-22
2022/03/23 12:27:39;;;;;;;2.80;2.40;;;;;;;16.52;50.46;97754.31;10383972;28;20061;-20
2022/03/23 12:32:39;;;;;;;12.40;3.70;;;;;;;16.65;51.33;97752.94;10386359;28;20147;-22
2022/03/23 12:37:42;;;;;;;12.23;3.57;;;;;;;16.73;51.20;97739.66;10384311;28;20110;-21
2022/03/23 12:42:43;;;;;;;7.40;2.75;;;;;;;16.72;50.11;97743.03;10386114;28;20273;-21
2022/03/23 12:47:57;;;;;;;8.15;3.22;;;;;;;16.69;50.17;97739.56;10393641;28;20406;-21
2022/03/23 12:58:27;;;;;;;16.63;4.60;;;;;;;16.66;50.37;97735.28;10387741;28;20021;-22
2022/03/23 13:03:28;;;;;;;5.28;2.80;;;;;;;16.64;50.25;97729.34;10392879;28;20032;-21
2022/03/23 13:08:32;;;;;;;7.00;2.83;;;;;;;16.64;50.24;97721.75;10386913;28;20042;-22
2022/03/23 13:13:35;;;;;;;12.00;3.63;;;;;;;16.61;50.54;97706.50;10381315;28;20037;-22
2022/03/23 13:18:36;;;;;;;17.50;4.43;;;;;;;16.42;51.95;97706.91;10385481;28;20034;-20
2022/03/23 13:23:41;;;;;;;10.32;4.47;;;;;;;16.58;51.19;97701.38;10379428;28;20405;-22
2022/03/23 13:28:50;;;;;;;13.43;3.92;;;;;;;16.56;51.10;97692.06;10387306;28;20061;-21
2022/03/23 13:33:52;;;;;;;17.33;5.30;;;;;;;16.71;52.51;97693.25;10382750;28;20045;-21
2022/03/23 13:38:56;;;;;;;16.98;5.78;;;;;;;16.77;52.32;97681.59;10380782;28;20033;-21
2022/03/23 13:43:58;;;;;;;8.82;3.60;;;;;;;16.70;51.43;97683.94;10380866;28;20404;-21
2022/03/23 13:49:03;;;;;;;7.75;3.17;;;;;;;16.65;50.81;97682.16;10387808;28;20501;-22
2022/03/23 13:54:07;;;;;;;7.45;3.28;;;;;;;16.64;50.74;97673.72;10386867;28;20489;-21
2022/03/23 13:59:09;;;;;;;5.72;3.00;;;;;;;16.60;50.99;97666.88;10385112;28;20025;-21
2022/03/23 14:04:11;;;;;;;9.10;3.25;;;;;;;16.62;51.16;97667.75;10390966;28;20069;-21
2022/03/23 14:09:14;;;;;;;4.40;2.65;;;;;;;16.62;50.85;97655.13;10388886;28;20056;-22
2022/03/23 14:14:19;;;;;;;7.43;3.28;;;;;;;16.60;50.99;97651.69;10381432;28;20033;-21
2022/03/23 14:19:20;;;;;;;10.48;3.20;;;;;;;16.60;50.99;97651.69;10391044;28;20064;-21
2022/03/23 14:24:21;;;;;;;4.15;2.60;;;;;;;16.62;51.28;97650.06;10383699;28;20448;-21
2022/03/23 14:29:22;;;;;;;9.35;3.00;;;;;;;16.62;51.77;97645.00;10386862;28;20094;-20
2022/03/23 14:34:26;;;;;;;8.77;3.80;;;;;;;16.77;53.48;97645.34;10384543;28;20064;-23
2022/03/23 14:39:26;;;;;;;6.82;4.32;;;;;;;16.79;53.08;97638.63;10386461;28;20030;-21
2022/03/23 14:44:37;;;;;;;6.50;3.17;;;;;;;16.71;51.62;97640.13;10379823;28;20034;-21
2022/03/23 14:49:41;;;;;;;5.82;2.70;;;;;;;16.62;51.60;97629.84;10378495;28;20029;-21
2022/03/23 14:54:43;;;;;;;5.30;2.90;;;;;;;16.64;51.24;97628.22;10383946;28;20402;-21
2022/03/23 14:59:44;;;;;;;4.20;2.58;;;;;;;16.61;51.37;97635.72;10387380;28;20033;-21
2022/03/23 15:04:45;;;;;;;4.93;2.90;;;;;;;16.63;51.40;97630.69;10398086;28;20033;-21
2022/03/23 15:15:04;;;;;;;3.20;2.42;;;;;;;16.61;51.07;97623.06;10391131;28;20033;-21
2022/03/23 15:20:06;;;;;;;5.50;3.00;;;;;;;16.61;50.95;97622.25;10390727;28;20105;-21
2022/03/23 15:25:07;;;;;;;5.78;3.05;;;;;;;16.62;51.32;97616.34;10394515;28;20554;-20
2022/03/23 15:30:09;;;;;;;11.85;4.30;;;;;;;16.66;53.73;97616.44;10388282;28;20048;-21
2022/03/23 15:35:09;;;;;;;6.68;3.50;;;;;;;16.80;53.61;97618.44;10388906;28;20057;-21
2022/03/23 15:40:10;;;;;;;10.15;3.83;;;;;;;16.81;53.20;97617.63;10384959;28;20321;-21
2022/03/23 15:45:11;;;;;;;4.82;2.97;;;;;;;16.72;51.61;97616.59;10387542;28;20064;-21
2022/03/23 15:50:12;;;;;;;3.88;2.97;;;;;;;16.62;51.46;97612.13;10384053;28;20044;-22
2022/03/23 15:55:13;;;;;;;4.22;2.80;;;;;;;16.61;51.34;97609.59;10388478;28;20104;-21
2022/03/23 16:00:14;;;;;;;4.43;2.80;;;;;;;16.63;51.28;97608.78;10387857;28;20124;-21
2022/03/23 16:05:15;;;;;;;5.18;2.83;;;;;;;16.59;51.26;97606.16;10395406;28;20040;-21
2022/03/23 16:10:15;;;;;;;5.70;2.30;;;;;;;16.61;50.92;97607.91;10383459;28;20513;-22
2022/03/23 16:15:16;;;;;;;3.83;2.58;;;;;;;16.61;51.17;97607.06;10390948;28;20472;-21
2022/03/23 16:20:17;;;;;;;3.92;2.40;;;;;;;16.61;51.31;97607.91;10381998;28;20401;-22
2022/03/23 16:25:18;;;;;;;5.97;2.25;;;;;;;16.59;51.28;97607.03;10386981;28;20040;-22
2022/03/23 16:30:19;;;;;;;5.20;3.25;;;;;;;16.65;53.88;97614.75;10388773;28;20083;-22
2022/03/23 16:35:22;;;;;;;4.57;3.05;;;;;;;16.80;54.14;97620.09;10381776;28;20037;-21
2022/03/23 16:40:23;;;;;;;5.22;3.20;;;;;;;16.85;53.19;97618.53;10378733;28;20040;-20
2022/03/23 16:45:25;;;;;;;4.22;2.63;;;;;;;16.73;51.38;97623.34;10388991;28;20501;-21
2022/03/23 16:50:26;;;;;;;3.15;2.30;;;;;;;16.69;51.21;97621.56;10387767;28;20038;-22
2022/03/23 16:55:29;;;;;;;3.47;2.33;;;;;;;16.61;51.20;97607.91;10384609;28;20071;-21
2022/03/23 17:00:34;;;;;;;2.70;2.25;;;;;;;16.68;51.28;97624.91;10382502;28;20564;-21
2022/03/23 17:16:14;;;;;;;4.63;2.50;;;;;;;16.67;51.09;97634.16;10388047;28;20027;-21
2022/03/23 17:21:16;;;;;;;3.33;2.10;;;;;;;16.67;50.94;97627.41;10380873;28;20042;-21
2022/03/23 17:26:18;;;;;;;3.20;2.55;;;;;;;16.67;51.14;97629.94;10382553;28;20038;-21
2022/03/23 17:31:19;;;;;;;4.00;3.10;;;;;;;16.70;52.89;97633.38;10384324;28;20033;-22
2022/03/23 17:36:20;;;;;;;3.97;2.92;;;;;;;16.80;53.49;97630.22;10383691;28;20052;-21
2022/03/23 17:41:20;;;;;;;5.00;3.20;;;;;;;16.88;53.57;97644.75;10384894;28;20520;-22
2022/03/23 17:46:21;;;;;;;2.60;2.20;;;;;;;16.75;51.32;97640.25;10382459;28;20040;-21
2022/03/23 17:51:23;;;;;;;2.40;2.20;;;;;;;16.70;50.86;97646.03;10375138;28;20859;-22
2022/03/23 17:56:23;;;;;;;3.25;2.15;;;;;;;16.66;51.04;97651.84;10389090;28;20287;-22
2022/03/23 18:01:25;;;;;;;4.37;2.60;;;;;;;16.67;50.95;97658.59;10380348;28;20405;-23
2022/03/23 18:06:26;;;;;;;4.07;2.13;;;;;;;16.69;51.02;97662.00;10395133;28;20300;-21
2022/03/23 18:11:26;;;;;;;2.67;2.30;;;;;;;16.66;51.17;97667.03;10382602;28;20033;-21
2022/03/23 18:16:27;;;;;;;2.42;2.20;;;;;;;16.66;51.21;97669.53;10382357;28;20026;-21
2022/03/23 18:21:28;;;;;;;2.83;2.00;;;;;;;16.64;50.76;97678.78;10381707;28;20030;-21
2022/03/23 18:26:28;;;;;;;2.57;2.20;;;;;;;16.67;51.19;97683.91;10379223;28;20026;-21
2022/03/23 18:31:29;;;;;;;3.30;2.53;;;;;;;16.66;50.74;97681.31;10392505;28;20300;-21
2022/03/23 18:36:30;;;;;;;7.18;3.40;;;;;;;16.80;53.35;97689.25;10391320;28;20029;-21
2022/03/23 18:41:31;;;;;;;5.90;3.28;;;;;;;16.86;53.11;97681.81;10392160;28;20038;-21
2022/03/23 18:46:32;;;;;;;3.95;3.10;;;;;;;16.78;51.17;97692.56;10396301;28;20033;-22
2022/03/23 18:51:32;;;;;;;6.25;3.63;;;;;;;16.56;51.71;97680.28;10386204;28;20033;-21
2022/03/23 18:56:33;;;;;;;2.85;2.30;;;;;;;16.59;51.40;97698.03;10394898;28;20057;-22
2022/03/23 19:01:33;;;;;;;4.87;3.20;;;;;;;16.57;52.75;97697.16;10394129;28;20038;-22
2022/03/23 19:06:34;;;;;;;5.73;3.13;;;;;;;16.58;52.89;97708.97;10387725;28;20387;-22
2022/03/23 19:11:35;;;;;;;11.27;3.58;;;;;;;16.58;52.60;97714.03;10389228;28;20041;-21
2022/03/23 19:16:35;;;;;;;5.28;2.72;;;;;;;16.55;51.69;97721.53;10393260;28;20449;-21
2022/03/23 19:21:35;;;;;;;5.23;2.83;;;;;;;16.54;51.52;97719.81;10380506;28;20430;-20
2022/03/23 19:26:36;;;;;;;4.87;2.80;;;;;;;16.51;52.54;97714.69;10380825;28;20827;-22
2022/03/23 19:31:37;;;;;;;5.93;3.10;;;;;;;16.51;52.59;97714.69;10377417;28;20284;-21
2022/03/23 19:36:37;;;;;;;7.57;3.65;;;;;;;16.65;53.33;97727.66;10374870;28;20494;-22
2022/03/23 19:41:42;;;;;;;4.63;3.30;;;;;;;16.69;53.15;97721.88;10385721;28;20038;-22
2022/03/23 19:46:42;;;;;;;3.60;2.90;;;;;;;16.59;52.71;97725.84;10390394;28;20297;-22
2022/03/23 19:51:43;;;;;;;6.13;2.67;;;;;;;16.52;51.96;97723.97;10376857;28;20033;-22
2022/03/23 19:56:44;;;;;;;3.08;2.40;;;;;;;16.53;51.80;97719.81;10381871;28;20034;-20
2022/03/23 20:01:45;;;;;;;2.95;2.30;;;;;;;16.50;52.21;97725.63;10375056;28;20049;-24
2022/03/23 20:06:45;;;;;;;4.82;3.00;;;;;;;16.47;52.01;97717.13;10380546;28;20038;-22
2022/03/23 20:11:46;;;;;;;4.47;3.10;;;;;;;16.53;52.09;97730.75;10390188;28;20498;-21
2022/03/23 20:16:47;;;;;;;4.97;2.60;;;;;;;16.51;51.63;97739.97;10384538;28;20295;-22
2022/03/23 20:21:49;;;;;;;11.32;3.10;;;;;;;16.48;52.73;97734.00;10387511;28;20299;-21
2022/03/23 20:26:50;;;;;;;3.38;2.83;;;;;;;16.52;51.61;97739.16;10387386;28;20029;-21
2022/03/23 20:31:50;;;;;;;8.17;3.97;;;;;;;16.61;52.90;97729.25;10380830;28;20033;-21
2022/03/23 20:36:50;;;;;;;7.55;3.55;;;;;;;16.60;52.91;97717.44;10381776;28;20033;-21
2022/03/23 20:41:51;;;;;;;4.67;3.40;;;;;;;16.63;52.49;97727.59;10382009;28;20041;-21
2022/03/23 20:46:51;;;;;;;5.80;3.20;;;;;;;16.57;52.23;97726.63;10384444;28;20034;-22
2022/03/23 20:51:52;;;;;;;4.00;2.72;;;;;;;16.54;52.00;97726.56;10371969;28;20390;-23
2022/03/23 20:56:52;;;;;;;8.15;4.55;;;;;;;16.53;52.24;97729.91;10372245;28;20026;-23
2022/03/23 21:01:55;;;;;;;5.07;3.67;;;;;;;16.53;52.10;97723.16;10380087;28;20033;-22
2022/03/23 21:07:00;;;;;;;4.65;3.08;;;;;;;16.49;51.61;97723.94;10377769;28;20296;-21
2022/03/23 21:12:01;;;;;;;2.97;2.03;;;;;;;16.54;51.09;97726.56;10393807;28;20683;-22
2022/03/23 21:17:01;;;;;;;2.57;2.37;;;;;;;16.57;51.21;97732.53;10380081;28;20029;-22
2022/03/23 21:22:02;;;;;;;7.05;3.45;;;;;;;16.56;52.02;97723.25;10376236;28;20995;-21
2022/03/23 21:27:02;;;;;;;4.70;2.72;;;;;;;16.55;52.28;97731.63;10381805;28;20034;-22
2022/03/23 21:32:04;;;;;;;7.50;3.58;;;;;;;16.60;52.82;97734.28;10386348;28;20037;-22
2022/03/23 21:37:05;;;;;;;5.28;3.70;;;;;;;16.63;53.14;97737.72;10390823;28;20133;-22
2022/03/23 21:42:06;;;;;;;4.43;3.20;;;;;;;16.64;52.71;97731.00;10380886;28;20116;-22
2022/03/23 21:47:06;;;;;;;5.00;3.25;;;;;;;16.58;51.98;97726.66;10384928;28;20113;-21
2022/03/23 21:52:07;;;;;;;3.33;2.70;;;;;;;16.54;51.88;97717.28;10375599;28;20029;-22
2022/03/23 21:57:07;;;;;;;2.92;2.60;;;;;;;16.45;51.66;97712.00;10380741;28;20730;-22
2022/03/23 22:02:08;;;;;;;3.72;2.75;;;;;;;16.48;51.82;97717.16;10381842;28;20493;-21
2022/03/23 22:07:08;;;;;;;6.03;2.45;;;;;;;16.51;51.31;97722.28;10394982;28;20421;-21
2022/03/23 22:12:09;;;;;;;2.65;2.40;;;;;;;16.53;51.63;97712.22;10392234;28;20078;-21
2022/03/23 22:17:09;;;;;;;3.38;2.67;;;;;;;16.52;51.65;97716.41;10394146;28;20064;-23
2022/03/23 22:22:10;;;;;;;5.00;2.57;;;;;;;16.51;51.51;97711.31;10389336;28;20041;-22
2022/03/23 22:27:10;;;;;;;4.03;2.80;;;;;;;16.51;51.35;97706.25;10389268;28;20030;-21
2022/03/23 22:32:10;;;;;;;3.40;2.80;;;;;;;16.52;51.71;97708.81;10393957;28;20292;-22
2022/03/23 22:37:11;;;;;;;5.50;2.67;;;;;;;16.59;52.84;97709.81;10391839;28;20021;-21
2022/03/23 22:42:11;;;;;;;4.28;2.85;;;;;;;16.61;52.42;97708.19;10391706;28;20022;-21
2022/03/23 22:47:12;;;;;;;4.68;2.20;;;;;;;16.53;52.42;97709.69;10393322;28;20042;-21
2022/03/23 22:52:13;;;;;;;5.22;2.50;;;;;;;16.52;52.14;97703.75;10385573;28;20087;-21
2022/03/23 22:57:14;;;;;;;3.70;2.65;;;;;;;16.53;51.52;97702.09;10387276;28;20029;-21
2022/03/23 23:02:14;;;;;;;3.10;2.42;;;;;;;16.51;51.69;97697.00;10394142;28;20041;-22
2022/03/23 23:07:17;;;;;;;2.45;2.25;;;;;;;16.51;51.34;97691.94;10395830;28;20039;-23
2022/03/23 23:12:17;;;;;;;3.67;2.70;;;;;;;16.52;51.71;97685.22;10390882;28;20095;-23
2022/03/23 23:17:18;;;;;;;3.42;2.55;;;;;;;16.52;51.48;97688.59;10392210;28;20030;-21
2022/03/23 23:22:18;;;;;;;3.47;2.13;;;;;;;16.51;51.43;97676.78;10381731;28;20154;-21
2022/03/23 23:27:21;;;;;;;2.40;2.20;;;;;;;16.51;51.80;97676.78;10388281;28;20827;-21
2022/03/23 23:32:23;;;;;;;3.35;2.60;;;;;;;16.49;51.53;97675.91;10394598;28;20300;-21
2022/03/23 23:37:24;;;;;;;4.60;2.20;;;;;;;16.55;52.52;97667.59;10389819;28;20025;-21
2022/03/23 23:42:25;;;;;;;4.10;2.72;;;;;;;16.59;52.47;97667.69;10390300;28;21466;-21
2022/03/23 23:47:26;;;;;;;4.07;2.63;;;;;;;16.54;52.12;97661.66;10389949;28;20037;-22
2022/03/23 23:52:26;;;;;;;2.90;2.20;;;;;;;16.46;51.93;97660.66;10381942;28;20343;-22
2022/03/23 23:57:27;;;;;;;2.38;2.08;;;;;;;16.49;51.79;97663.25;10386508;28;20478;-21
